sensor_id;sensor_type;location;lat;lon;timestamp;P1;durP1;ratioP1;P2;durP2;ratioP2
60233;SDS011;49514;43.538;-5.708;2023-07-20T00:02:18;6.15;;;2.50;;
60233;SDS011;49514;43.538;-5.708;2023-07-20T00:04:44;4.68;;;2.70;;
60233;SDS011;49514;43.538;-5.708;2023-07-20T00:07:11;4.27;;;2.40;;
60233;SDS011;49514;43.538;-5.708;2023-07-20T00:09:38;7.53;;;2.80;;
60233;SDS011;49514;43.538;-5.708;2023-07-20T00:12:04;6.40;;;3.10;;
60233;SDS011;49514;43.538;-5.708;2023-07-20T00:14:31;5.57;;;2.50;;
60233;SDS011;49514;43.538;-5.708;2023-07-20T00:16:58;5.53;;;2.50;;
60233;SDS011;49514;43.538;-5.708;2023-07-20T00:19:25;4.75;;;2.35;;
60233;SDS011;49514;43.538;-5.708;2023-07-20T00:21:53;5.25;;;2.67;;
60233;SDS011;49514;43.538;-5.708;2023-07-20T00:24:20;4.93;;;2.50;;
60233;SDS011;49514;43.538;-5.708;2023-07-20T00:26:47;6.00;;;2.90;;
60233;SDS011;49514;43.538;-5.708;2023-07-20T00:29:15;5.90;;;2.42;;
60233;SDS011;49514;43.538;-5.708;2023-07-20T00:31:41;5.22;;;2.55;;
60233;SDS011;49514;43.538;-5.708;2023-07-20T00:34:09;4.93;;;2.78;;
60233;SDS011;49514;43.538;-5.708;2023-07-20T00:36:36;5.50;;;2.70;;
60233;SDS011;49514;43.538;-5.708;2023-07-20T00:39:02;6.85;;;2.72;;
60233;SDS011;49514;43.538;-5.708;2023-07-20T00:41:29;5.60;;;2.60;;
60233;SDS011;49514;43.538;-5.708;2023-07-20T00:43:57;6.30;;;2.60;;
60233;SDS011;49514;43.538;-5.708;2023-07-20T00:46:24;7.15;;;2.75;;
60233;SDS011;49514;43.538;-5.708;2023-07-20T00:48:51;5.45;;;2.63;;
60233;SDS011;49514;43.538;-5.708;2023-07-20T00:51:19;4.70;;;2.70;;
60233;SDS011;49514;43.538;-5.708;2023-07-20T00:53:47;6.55;;;2.88;;
60233;SDS011;49514;43.538;-5.708;2023-07-20T00:56:15;4.93;;;2.75;;
60233;SDS011;49514;43.538;-5.708;2023-07-20T00:58:41;4.65;;;2.70;;
60233;SDS011;49514;43.538;-5.708;2023-07-20T01:01:08;4.93;;;2.50;;
60233;SDS011;49514;43.538;-5.708;2023-07-20T01:03:35;6.55;;;2.70;;
60233;SDS011;49514;43.538;-5.708;2023-07-20T01:06:45;6.07;;;2.95;;
60233;SDS011;49514;43.538;-5.708;2023-07-20T01:09:14;6.72;;;2.90;;
60233;SDS011;49514;43.538;-5.708;2023-07-20T01:14:38;4.82;;;2.70;;
60233;SDS011;49514;43.538;-5.708;2023-07-20T01:17:05;5.20;;;2.65;;
60233;SDS011;49514;43.538;-5.708;2023-07-20T01:19:32;6.00;;;3.00;;
60233;SDS011;49514;43.538;-5.708;2023-07-20T01:21:59;5.43;;;2.77;;
60233;SDS011;49514;43.538;-5.708;2023-07-20T01:33:05;5.73;;;2.70;;
60233;SDS011;49514;43.538;-5.708;2023-07-20T01:35:33;7.73;;;3.00;;
60233;SDS011;49514;43.538;-5.708;2023-07-20T01:38:01;5.15;;;2.42;;
60233;SDS011;49514;43.538;-5.708;2023-07-20T01:40:29;6.82;;;3.08;;
60233;SDS011;49514;43.538;-5.708;2023-07-20T01:42:56;5.05;;;3.00;;
60233;SDS011;49514;43.538;-5.708;2023-07-20T01:45:23;6.70;;;2.77;;
60233;SDS011;49514;43.538;-5.708;2023-07-20T01:47:50;7.10;;;2.90;;
60233;SDS011;49514;43.538;-5.708;2023-07-20T01:50:16;5.72;;;2.88;;
60233;SDS011;49514;43.538;-5.708;2023-07-20T01:52:43;5.33;;;2.80;;
60233;SDS011;49514;43.538;-5.708;2023-07-20T01:55:10;6.85;;;3.10;;
60233;SDS011;49514;43.538;-5.708;2023-07-20T01:57:36;4.57;;;2.53;;
60233;SDS011;49514;43.538;-5.708;2023-07-20T02:00:03;7.30;;;2.88;;
60233;SDS011;49514;43.538;-5.708;2023-07-20T02:02:41;5.07;;;2.60;;
60233;SDS011;49514;43.538;-5.708;2023-07-20T02:05:08;6.32;;;2.90;;
60233;SDS011;49514;43.538;-5.708;2023-07-20T02:07:35;5.30;;;2.88;;
60233;SDS011;49514;43.538;-5.708;2023-07-20T02:10:01;4.78;;;2.50;;
60233;SDS011;49514;43.538;-5.708;2023-07-20T02:12:28;4.18;;;2.55;;
60233;SDS011;49514;43.538;-5.708;2023-07-20T02:14:55;5.15;;;2.50;;
60233;SDS011;49514;43.538;-5.708;2023-07-20T02:17:21;6.65;;;2.83;;
60233;SDS011;49514;43.538;-5.708;2023-07-20T02:19:57;5.00;;;2.63;;
60233;SDS011;49514;43.538;-5.708;2023-07-20T02:22:24;5.35;;;2.60;;
60233;SDS011;49514;43.538;-5.708;2023-07-20T02:24:50;6.53;;;2.70;;
60233;SDS011;49514;43.538;-5.708;2023-07-20T02:27:17;4.53;;;2.40;;
60233;SDS011;49514;43.538;-5.708;2023-07-20T02:29:43;5.50;;;2.60;;
60233;SDS011;49514;43.538;-5.708;2023-07-20T02:32:10;5.82;;;2.65;;
60233;SDS011;49514;43.538;-5.708;2023-07-20T02:34:37;5.65;;;2.90;;
60233;SDS011;49514;43.538;-5.708;2023-07-20T02:37:04;5.00;;;2.78;;
60233;SDS011;49514;43.538;-5.708;2023-07-20T02:39:31;8.07;;;2.90;;
60233;SDS011;49514;43.538;-5.708;2023-07-20T02:41:58;5.35;;;2.70;;
60233;SDS011;49514;43.538;-5.708;2023-07-20T02:44:24;5.47;;;2.70;;
60233;SDS011;49514;43.538;-5.708;2023-07-20T02:46:51;5.15;;;2.60;;
60233;SDS011;49514;43.538;-5.708;2023-07-20T02:49:17;6.68;;;2.60;;
60233;SDS011;49514;43.538;-5.708;2023-07-20T02:51:44;7.30;;;2.75;;
60233;SDS011;49514;43.538;-5.708;2023-07-20T02:54:12;5.07;;;2.60;;
60233;SDS011;49514;43.538;-5.708;2023-07-20T02:56:38;6.93;;;2.78;;
60233;SDS011;49514;43.538;-5.708;2023-07-20T02:59:05;5.77;;;2.67;;
60233;SDS011;49514;43.538;-5.708;2023-07-20T03:01:32;5.75;;;2.67;;
60233;SDS011;49514;43.538;-5.708;2023-07-20T03:03:58;5.95;;;2.70;;
60233;SDS011;49514;43.538;-5.708;2023-07-20T03:06:25;6.43;;;2.80;;
60233;SDS011;49514;43.538;-5.708;2023-07-20T03:08:51;6.85;;;2.70;;
60233;SDS011;49514;43.538;-5.708;2023-07-20T03:11:19;6.75;;;2.90;;
60233;SDS011;49514;43.538;-5.708;2023-07-20T03:13:47;6.07;;;2.83;;
60233;SDS011;49514;43.538;-5.708;2023-07-20T03:16:15;8.63;;;3.10;;
60233;SDS011;49514;43.538;-5.708;2023-07-20T03:18:45;5.05;;;2.50;;
60233;SDS011;49514;43.538;-5.708;2023-07-20T03:21:12;5.60;;;2.72;;
60233;SDS011;49514;43.538;-5.708;2023-07-20T03:23:39;5.17;;;2.57;;
60233;SDS011;49514;43.538;-5.708;2023-07-20T03:26:07;7.65;;;2.83;;
60233;SDS011;49514;43.538;-5.708;2023-07-20T03:28:35;6.93;;;2.80;;
60233;SDS011;49514;43.538;-5.708;2023-07-20T03:31:02;5.72;;;2.63;;
60233;SDS011;49514;43.538;-5.708;2023-07-20T03:33:32;6.45;;;2.80;;
60233;SDS011;49514;43.538;-5.708;2023-07-20T03:35:59;6.35;;;2.80;;
60233;SDS011;49514;43.538;-5.708;2023-07-20T03:38:27;5.95;;;2.70;;
60233;SDS011;49514;43.538;-5.708;2023-07-20T03:40:58;4.70;;;2.50;;
60233;SDS011;49514;43.538;-5.708;2023-07-20T03:43:26;8.70;;;3.10;;
60233;SDS011;49514;43.538;-5.708;2023-07-20T03:45:53;5.90;;;2.80;;
60233;SDS011;49514;43.538;-5.708;2023-07-20T03:48:21;4.43;;;2.50;;
60233;SDS011;49514;43.538;-5.708;2023-07-20T03:50:50;6.38;;;2.90;;
60233;SDS011;49514;43.538;-5.708;2023-07-20T03:53:18;6.53;;;2.70;;
60233;SDS011;49514;43.538;-5.708;2023-07-20T03:55:48;3.60;;;2.47;;
60233;SDS011;49514;43.538;-5.708;2023-07-20T03:58:17;5.95;;;2.72;;
60233;SDS011;49514;43.538;-5.708;2023-07-20T04:00:45;6.10;;;2.63;;
60233;SDS011;49514;43.538;-5.708;2023-07-20T04:03:13;5.45;;;2.47;;
60233;SDS011;49514;43.538;-5.708;2023-07-20T04:05:40;7.47;;;2.78;;
60233;SDS011;49514;43.538;-5.708;2023-07-20T04:08:08;7.25;;;3.03;;
60233;SDS011;49514;43.538;-5.708;2023-07-20T04:10:37;4.82;;;2.58;;
60233;SDS011;49514;43.538;-5.708;2023-07-20T04:13:04;7.03;;;2.92;;
60233;SDS011;49514;43.538;-5.708;2023-07-20T04:15:31;7.20;;;2.92;;
60233;SDS011;49514;43.538;-5.708;2023-07-20T04:17:57;4.95;;;2.92;;
60233;SDS011;49514;43.538;-5.708;2023-07-20T04:20:24;6.70;;;2.60;;
60233;SDS011;49514;43.538;-5.708;2023-07-20T04:22:51;5.78;;;2.80;;
60233;SDS011;49514;43.538;-5.708;2023-07-20T04:25:18;6.63;;;2.90;;
60233;SDS011;49514;43.538;-5.708;2023-07-20T04:27:46;6.68;;;2.92;;
60233;SDS011;49514;43.538;-5.708;2023-07-20T04:30:13;6.50;;;2.80;;
60233;SDS011;49514;43.538;-5.708;2023-07-20T04:32:41;5.32;;;2.67;;
60233;SDS011;49514;43.538;-5.708;2023-07-20T04:35:16;6.88;;;2.78;;
60233;SDS011;49514;43.538;-5.708;2023-07-20T04:37:44;4.90;;;2.75;;
60233;SDS011;49514;43.538;-5.708;2023-07-20T04:40:15;6.37;;;2.90;;
60233;SDS011;49514;43.538;-5.708;2023-07-20T04:42:42;5.43;;;2.72;;
60233;SDS011;49514;43.538;-5.708;2023-07-20T04:45:08;8.27;;;3.13;;
60233;SDS011;49514;43.538;-5.708;2023-07-20T04:47:36;7.68;;;2.90;;
60233;SDS011;49514;43.538;-5.708;2023-07-20T04:50:03;6.32;;;2.97;;
60233;SDS011;49514;43.538;-5.708;2023-07-20T04:52:31;5.43;;;2.90;;
60233;SDS011;49514;43.538;-5.708;2023-07-20T04:54:59;8.35;;;3.08;;
60233;SDS011;49514;43.538;-5.708;2023-07-20T04:57:26;7.03;;;3.20;;
60233;SDS011;49514;43.538;-5.708;2023-07-20T04:59:52;7.85;;;2.80;;
60233;SDS011;49514;43.538;-5.708;2023-07-20T05:02:19;8.02;;;3.13;;
60233;SDS011;49514;43.538;-5.708;2023-07-20T05:04:46;7.20;;;3.08;;
60233;SDS011;49514;43.538;-5.708;2023-07-20T05:07:13;7.68;;;2.80;;
60233;SDS011;49514;43.538;-5.708;2023-07-20T05:09:39;8.30;;;3.03;;
60233;SDS011;49514;43.538;-5.708;2023-07-20T05:12:06;8.52;;;3.00;;
60233;SDS011;49514;43.538;-5.708;2023-07-20T05:14:33;6.82;;;2.88;;
60233;SDS011;49514;43.538;-5.708;2023-07-20T05:17:00;9.45;;;3.13;;
60233;SDS011;49514;43.538;-5.708;2023-07-20T05:19:27;5.13;;;3.05;;
60233;SDS011;49514;43.538;-5.708;2023-07-20T05:21:54;6.97;;;3.00;;
60233;SDS011;49514;43.538;-5.708;2023-07-20T05:24:20;8.55;;;2.90;;
60233;SDS011;49514;43.538;-5.708;2023-07-20T05:26:47;5.53;;;2.90;;
60233;SDS011;49514;43.538;-5.708;2023-07-20T05:29:14;8.85;;;3.17;;
60233;SDS011;49514;43.538;-5.708;2023-07-20T05:31:41;6.17;;;3.20;;
60233;SDS011;49514;43.538;-5.708;2023-07-20T05:34:08;4.50;;;2.70;;
60233;SDS011;49514;43.538;-5.708;2023-07-20T05:36:34;5.70;;;3.10;;
60233;SDS011;49514;43.538;-5.708;2023-07-20T05:39:01;5.17;;;2.90;;
60233;SDS011;49514;43.538;-5.708;2023-07-20T05:41:27;5.47;;;2.90;;
60233;SDS011;49514;43.538;-5.708;2023-07-20T05:43:54;5.25;;;2.97;;
60233;SDS011;49514;43.538;-5.708;2023-07-20T05:46:20;6.00;;;3.03;;
60233;SDS011;49514;43.538;-5.708;2023-07-20T05:48:47;5.63;;;3.00;;
60233;SDS011;49514;43.538;-5.708;2023-07-20T05:51:14;7.90;;;3.38;;
60233;SDS011;49514;43.538;-5.708;2023-07-20T05:53:41;5.32;;;2.90;;
60233;SDS011;49514;43.538;-5.708;2023-07-20T05:56:07;5.13;;;3.00;;
60233;SDS011;49514;43.538;-5.708;2023-07-20T05:58:36;5.47;;;2.97;;
60233;SDS011;49514;43.538;-5.708;2023-07-20T06:01:03;7.25;;;3.05;;
60233;SDS011;49514;43.538;-5.708;2023-07-20T06:03:32;5.05;;;2.83;;
60233;SDS011;49514;43.538;-5.708;2023-07-20T06:06:00;6.63;;;3.10;;
60233;SDS011;49514;43.538;-5.708;2023-07-20T06:08:28;5.63;;;2.83;;
60233;SDS011;49514;43.538;-5.708;2023-07-20T06:10:54;8.23;;;3.30;;
60233;SDS011;49514;43.538;-5.708;2023-07-20T06:13:21;4.85;;;3.17;;
60233;SDS011;49514;43.538;-5.708;2023-07-20T06:15:48;4.72;;;2.90;;
60233;SDS011;49514;43.538;-5.708;2023-07-20T06:18:15;8.00;;;3.47;;
60233;SDS011;49514;43.538;-5.708;2023-07-20T06:20:41;6.60;;;2.90;;
60233;SDS011;49514;43.538;-5.708;2023-07-20T06:23:08;6.13;;;2.83;;
60233;SDS011;49514;43.538;-5.708;2023-07-20T06:25:35;6.65;;;3.10;;
60233;SDS011;49514;43.538;-5.708;2023-07-20T06:28:02;4.95;;;3.03;;
60233;SDS011;49514;43.538;-5.708;2023-07-20T06:30:30;7.97;;;3.15;;
60233;SDS011;49514;43.538;-5.708;2023-07-20T06:33:00;8.23;;;2.95;;
60233;SDS011;49514;43.538;-5.708;2023-07-20T06:35:27;5.30;;;3.00;;
60233;SDS011;49514;43.538;-5.708;2023-07-20T06:37:53;6.78;;;3.30;;
60233;SDS011;49514;43.538;-5.708;2023-07-20T06:40:20;8.57;;;3.40;;
60233;SDS011;49514;43.538;-5.708;2023-07-20T06:42:47;7.27;;;3.30;;
60233;SDS011;49514;43.538;-5.708;2023-07-20T06:45:14;5.88;;;2.60;;
60233;SDS011;49514;43.538;-5.708;2023-07-20T06:47:40;7.22;;;3.33;;
60233;SDS011;49514;43.538;-5.708;2023-07-20T06:50:07;11.13;;;3.35;;
60233;SDS011;49514;43.538;-5.708;2023-07-20T06:52:35;6.57;;;3.03;;
60233;SDS011;49514;43.538;-5.708;2023-07-20T06:55:02;8.68;;;2.92;;
60233;SDS011;49514;43.538;-5.708;2023-07-20T06:57:29;7.68;;;3.20;;
60233;SDS011;49514;43.538;-5.708;2023-07-20T06:59:56;7.50;;;2.63;;
60233;SDS011;49514;43.538;-5.708;2023-07-20T07:02:22;5.75;;;2.65;;
60233;SDS011;49514;43.538;-5.708;2023-07-20T07:04:49;6.55;;;3.25;;
60233;SDS011;49514;43.538;-5.708;2023-07-20T07:07:16;5.40;;;2.83;;
60233;SDS011;49514;43.538;-5.708;2023-07-20T07:09:43;8.38;;;2.85;;
60233;SDS011;49514;43.538;-5.708;2023-07-20T07:12:09;6.57;;;2.80;;
60233;SDS011;49514;43.538;-5.708;2023-07-20T07:14:36;7.22;;;3.05;;
60233;SDS011;49514;43.538;-5.708;2023-07-20T07:17:02;8.77;;;2.58;;
60233;SDS011;49514;43.538;-5.708;2023-07-20T07:19:29;14.82;;;3.35;;
60233;SDS011;49514;43.538;-5.708;2023-07-20T07:21:56;6.70;;;3.20;;
60233;SDS011;49514;43.538;-5.708;2023-07-20T07:24:23;6.07;;;2.92;;
60233;SDS011;49514;43.538;-5.708;2023-07-20T07:26:49;6.30;;;2.88;;
60233;SDS011;49514;43.538;-5.708;2023-07-20T07:29:16;5.35;;;2.60;;
60233;SDS011;49514;43.538;-5.708;2023-07-20T07:31:43;7.15;;;2.63;;
60233;SDS011;49514;43.538;-5.708;2023-07-20T07:34:10;6.75;;;2.72;;
60233;SDS011;49514;43.538;-5.708;2023-07-20T07:36:36;6.00;;;2.72;;
60233;SDS011;49514;43.538;-5.708;2023-07-20T07:39:03;5.88;;;2.83;;
60233;SDS011;49514;43.538;-5.708;2023-07-20T07:41:29;6.03;;;2.92;;
60233;SDS011;49514;43.538;-5.708;2023-07-20T07:43:56;5.63;;;2.92;;
60233;SDS011;49514;43.538;-5.708;2023-07-20T07:46:22;6.15;;;2.75;;
60233;SDS011;49514;43.538;-5.708;2023-07-20T07:48:49;4.65;;;2.47;;
60233;SDS011;49514;43.538;-5.708;2023-07-20T07:51:16;4.38;;;2.47;;
60233;SDS011;49514;43.538;-5.708;2023-07-20T07:53:42;4.90;;;2.20;;
60233;SDS011;49514;43.538;-5.708;2023-07-20T07:56:09;6.90;;;2.63;;
60233;SDS011;49514;43.538;-5.708;2023-07-20T07:58:36;4.13;;;2.42;;
60233;SDS011;49514;43.538;-5.708;2023-07-20T08:01:03;5.93;;;2.63;;
60233;SDS011;49514;43.538;-5.708;2023-07-20T08:03:30;5.93;;;3.00;;
60233;SDS011;49514;43.538;-5.708;2023-07-20T08:05:57;5.82;;;2.60;;
60233;SDS011;49514;43.538;-5.708;2023-07-20T08:08:25;5.05;;;2.28;;
60233;SDS011;49514;43.538;-5.708;2023-07-20T08:10:55;2.60;;;2.20;;
60233;SDS011;49514;43.538;-5.708;2023-07-20T08:13:22;5.78;;;2.40;;
60233;SDS011;49514;43.538;-5.708;2023-07-20T08:15:49;5.47;;;2.25;;
60233;SDS011;49514;43.538;-5.708;2023-07-20T08:18:20;5.18;;;2.50;;
60233;SDS011;49514;43.538;-5.708;2023-07-20T08:20:47;5.13;;;2.57;;
60233;SDS011;49514;43.538;-5.708;2023-07-20T08:23:15;4.95;;;2.42;;
60233;SDS011;49514;43.538;-5.708;2023-07-20T08:25:42;4.82;;;2.13;;
60233;SDS011;49514;43.538;-5.708;2023-07-20T08:28:18;4.28;;;2.30;;
60233;SDS011;49514;43.538;-5.708;2023-07-20T08:30:46;4.53;;;2.60;;
60233;SDS011;49514;43.538;-5.708;2023-07-20T08:33:14;4.82;;;2.50;;
60233;SDS011;49514;43.538;-5.708;2023-07-20T08:35:45;5.68;;;2.17;;
60233;SDS011;49514;43.538;-5.708;2023-07-20T08:38:12;5.25;;;2.30;;
60233;SDS011;49514;43.538;-5.708;2023-07-20T08:53:18;4.25;;;2.10;;
60233;SDS011;49514;43.538;-5.708;2023-07-20T08:55:44;4.28;;;1.98;;
60233;SDS011;49514;43.538;-5.708;2023-07-20T08:58:14;4.40;;;1.88;;
60233;SDS011;49514;43.538;-5.708;2023-07-20T09:00:42;3.90;;;1.90;;
60233;SDS011;49514;43.538;-5.708;2023-07-20T09:03:10;4.72;;;2.30;;
60233;SDS011;49514;43.538;-5.708;2023-07-20T09:05:37;3.10;;;1.80;;
60233;SDS011;49514;43.538;-5.708;2023-07-20T09:08:06;3.95;;;2.03;;
60233;SDS011;49514;43.538;-5.708;2023-07-20T09:10:33;4.28;;;1.80;;
60233;SDS011;49514;43.538;-5.708;2023-07-20T09:13:00;3.33;;;1.30;;
60233;SDS011;49514;43.538;-5.708;2023-07-20T09:15:28;4.10;;;1.67;;
60233;SDS011;49514;43.538;-5.708;2023-07-20T09:17:55;3.85;;;1.40;;
60233;SDS011;49514;43.538;-5.708;2023-07-20T09:20:22;4.07;;;1.50;;
60233;SDS011;49514;43.538;-5.708;2023-07-20T09:22:50;2.17;;;1.25;;
60233;SDS011;49514;43.538;-5.708;2023-07-20T09:25:18;5.90;;;1.40;;
60233;SDS011;49514;43.538;-5.708;2023-07-20T09:27:46;2.03;;;1.20;;
60233;SDS011;49514;43.538;-5.708;2023-07-20T09:30:14;2.05;;;1.10;;
60233;SDS011;49514;43.538;-5.708;2023-07-20T09:32:48;4.80;;;1.30;;
60233;SDS011;49514;43.538;-5.708;2023-07-20T09:35:19;3.13;;;1.45;;
60233;SDS011;49514;43.538;-5.708;2023-07-20T09:38:00;3.10;;;0.95;;
60233;SDS011;49514;43.538;-5.708;2023-07-20T09:40:27;3.63;;;1.20;;
60233;SDS011;49514;43.538;-5.708;2023-07-20T09:42:54;1.15;;;0.85;;
60233;SDS011;49514;43.538;-5.708;2023-07-20T09:45:35;3.10;;;1.20;;
60233;SDS011;49514;43.538;-5.708;2023-07-20T09:48:06;4.15;;;1.10;;
60233;SDS011;49514;43.538;-5.708;2023-07-20T09:50:40;1.52;;;0.85;;
60233;SDS011;49514;43.538;-5.708;2023-07-20T09:53:09;1.73;;;1.03;;
60233;SDS011;49514;43.538;-5.708;2023-07-20T09:55:39;2.70;;;1.17;;
60233;SDS011;49514;43.538;-5.708;2023-07-20T09:58:10;2.60;;;1.30;;
60233;SDS011;49514;43.538;-5.708;2023-07-20T10:00:37;1.90;;;1.02;;
60233;SDS011;49514;43.538;-5.708;2023-07-20T10:03:05;4.10;;;1.30;;
60233;SDS011;49514;43.538;-5.708;2023-07-20T10:05:33;6.88;;;1.25;;
60233;SDS011;49514;43.538;-5.708;2023-07-20T10:08:01;3.83;;;1.30;;
60233;SDS011;49514;43.538;-5.708;2023-07-20T10:10:31;2.95;;;1.20;;
60233;SDS011;49514;43.538;-5.708;2023-07-20T10:13:00;1.38;;;0.85;;
60233;SDS011;49514;43.538;-5.708;2023-07-20T10:15:29;2.22;;;1.08;;
60233;SDS011;49514;43.538;-5.708;2023-07-20T10:20:54;1.85;;;0.98;;
60233;SDS011;49514;43.538;-5.708;2023-07-20T10:23:22;3.45;;;1.17;;
60233;SDS011;49514;43.538;-5.708;2023-07-20T10:25:50;3.45;;;1.00;;
60233;SDS011;49514;43.538;-5.708;2023-07-20T10:28:17;3.17;;;1.08;;
60233;SDS011;49514;43.538;-5.708;2023-07-20T10:30:44;3.97;;;1.20;;
60233;SDS011;49514;43.538;-5.708;2023-07-20T10:33:11;3.05;;;0.98;;
60233;SDS011;49514;43.538;-5.708;2023-07-20T10:35:55;3.63;;;1.25;;
60233;SDS011;49514;43.538;-5.708;2023-07-20T10:41:17;2.78;;;1.30;;
60233;SDS011;49514;43.538;-5.708;2023-07-20T10:43:48;2.47;;;1.08;;
60233;SDS011;49514;43.538;-5.708;2023-07-20T10:46:15;2.35;;;1.10;;
60233;SDS011;49514;43.538;-5.708;2023-07-20T10:49:05;5.38;;;1.10;;
60233;SDS011;49514;43.538;-5.708;2023-07-20T10:51:40;2.50;;;1.30;;
60233;SDS011;49514;43.538;-5.708;2023-07-20T10:54:55;2.67;;;1.20;;
60233;SDS011;49514;43.538;-5.708;2023-07-20T10:56:58;4.03;;;1.43;;
60233;SDS011;49514;43.538;-5.708;2023-07-20T10:59:51;3.40;;;1.25;;
60233;SDS011;49514;43.538;-5.708;2023-07-20T11:02:18;2.67;;;1.10;;
60233;SDS011;49514;43.538;-5.708;2023-07-20T11:04:46;2.60;;;1.08;;
60233;SDS011;49514;43.538;-5.708;2023-07-20T11:07:17;1.95;;;1.00;;
60233;SDS011;49514;43.538;-5.708;2023-07-20T11:10:13;2.65;;;1.08;;
60233;SDS011;49514;43.538;-5.708;2023-07-20T11:15:52;2.63;;;1.10;;
60233;SDS011;49514;43.538;-5.708;2023-07-20T11:18:30;2.88;;;1.20;;
60233;SDS011;49514;43.538;-5.708;2023-07-20T11:21:06;4.85;;;1.30;;
60233;SDS011;49514;43.538;-5.708;2023-07-20T11:23:35;2.78;;;1.20;;
60233;SDS011;49514;43.538;-5.708;2023-07-20T11:26:05;2.55;;;1.10;;
60233;SDS011;49514;43.538;-5.708;2023-07-20T11:28:33;2.63;;;1.17;;
60233;SDS011;49514;43.538;-5.708;2023-07-20T11:31:00;2.67;;;1.02;;
60233;SDS011;49514;43.538;-5.708;2023-07-20T11:33:26;2.03;;;1.10;;
60233;SDS011;49514;43.538;-5.708;2023-07-20T11:35:53;2.77;;;1.00;;
60233;SDS011;49514;43.538;-5.708;2023-07-20T11:38:20;3.35;;;1.13;;
60233;SDS011;49514;43.538;-5.708;2023-07-20T11:40:47;3.30;;;1.30;;
60233;SDS011;49514;43.538;-5.708;2023-07-20T11:43:14;2.90;;;1.10;;
60233;SDS011;49514;43.538;-5.708;2023-07-20T11:45:41;2.13;;;1.10;;
60233;SDS011;49514;43.538;-5.708;2023-07-20T11:48:13;2.15;;;1.00;;
60233;SDS011;49514;43.538;-5.708;2023-07-20T11:50:41;2.28;;;1.10;;
60233;SDS011;49514;43.538;-5.708;2023-07-20T11:53:08;3.57;;;1.20;;
60233;SDS011;49514;43.538;-5.708;2023-07-20T11:55:35;2.50;;;1.20;;
60233;SDS011;49514;43.538;-5.708;2023-07-20T11:58:06;2.57;;;1.10;;
60233;SDS011;49514;43.538;-5.708;2023-07-20T12:00:34;3.35;;;1.00;;
60233;SDS011;49514;43.538;-5.708;2023-07-20T12:03:04;2.30;;;0.88;;
60233;SDS011;49514;43.538;-5.708;2023-07-20T12:05:36;2.67;;;1.00;;
60233;SDS011;49514;43.538;-5.708;2023-07-20T12:08:06;3.38;;;1.20;;
60233;SDS011;49514;43.538;-5.708;2023-07-20T12:10:33;2.40;;;1.00;;
60233;SDS011;49514;43.538;-5.708;2023-07-20T12:13:03;2.08;;;1.00;;
60233;SDS011;49514;43.538;-5.708;2023-07-20T12:15:30;2.53;;;0.93;;
60233;SDS011;49514;43.538;-5.708;2023-07-20T12:17:58;2.17;;;0.90;;
60233;SDS011;49514;43.538;-5.708;2023-07-20T12:23:12;1.80;;;0.90;;
60233;SDS011;49514;43.538;-5.708;2023-07-20T12:28:08;2.40;;;1.00;;
60233;SDS011;49514;43.538;-5.708;2023-07-20T12:30:40;2.28;;;0.90;;
60233;SDS011;49514;43.538;-5.708;2023-07-20T12:33:08;3.08;;;1.20;;
60233;SDS011;49514;43.538;-5.708;2023-07-20T12:35:34;3.22;;;1.20;;
60233;SDS011;49514;43.538;-5.708;2023-07-20T12:38:01;2.53;;;1.10;;
60233;SDS011;49514;43.538;-5.708;2023-07-20T12:40:28;1.57;;;0.90;;
60233;SDS011;49514;43.538;-5.708;2023-07-20T12:42:55;2.80;;;1.00;;
60233;SDS011;49514;43.538;-5.708;2023-07-20T12:45:23;1.40;;;0.90;;
60233;SDS011;49514;43.538;-5.708;2023-07-20T12:47:49;1.92;;;0.93;;
60233;SDS011;49514;43.538;-5.708;2023-07-20T12:50:16;3.08;;;1.10;;
60233;SDS011;49514;43.538;-5.708;2023-07-20T12:52:43;1.95;;;1.00;;
60233;SDS011;49514;43.538;-5.708;2023-07-20T12:55:09;3.65;;;0.90;;
60233;SDS011;49514;43.538;-5.708;2023-07-20T12:57:36;2.03;;;1.00;;
60233;SDS011;49514;43.538;-5.708;2023-07-20T13:00:04;1.70;;;0.90;;
60233;SDS011;49514;43.538;-5.708;2023-07-20T13:02:35;2.28;;;1.02;;
60233;SDS011;49514;43.538;-5.708;2023-07-20T13:05:02;2.08;;;1.02;;
60233;SDS011;49514;43.538;-5.708;2023-07-20T13:07:30;3.40;;;1.23;;
60233;SDS011;49514;43.538;-5.708;2023-07-20T13:09:58;2.30;;;1.00;;
60233;SDS011;49514;43.538;-5.708;2023-07-20T13:12:30;2.58;;;1.10;;
60233;SDS011;49514;43.538;-5.708;2023-07-20T13:15:00;2.23;;;1.07;;
60233;SDS011;49514;43.538;-5.708;2023-07-20T13:17:35;1.93;;;1.07;;
60233;SDS011;49514;43.538;-5.708;2023-07-20T13:20:03;1.92;;;1.00;;
60233;SDS011;49514;43.538;-5.708;2023-07-20T13:22:35;2.17;;;0.90;;
60233;SDS011;49514;43.538;-5.708;2023-07-20T13:25:02;2.95;;;0.90;;
60233;SDS011;49514;43.538;-5.708;2023-07-20T13:27:29;2.67;;;1.00;;
60233;SDS011;49514;43.538;-5.708;2023-07-20T13:29:57;1.80;;;0.90;;
60233;SDS011;49514;43.538;-5.708;2023-07-20T13:32:25;2.33;;;0.90;;
60233;SDS011;49514;43.538;-5.708;2023-07-20T13:34:55;3.10;;;0.77;;
60233;SDS011;49514;43.538;-5.708;2023-07-20T13:37:21;4.20;;;1.00;;
60233;SDS011;49514;43.538;-5.708;2023-07-20T13:39:48;1.98;;;0.90;;
60233;SDS011;49514;43.538;-5.708;2023-07-20T13:42:14;1.85;;;0.90;;
60233;SDS011;49514;43.538;-5.708;2023-07-20T13:44:41;3.60;;;0.95;;
60233;SDS011;49514;43.538;-5.708;2023-07-20T13:47:08;2.45;;;1.00;;
60233;SDS011;49514;43.538;-5.708;2023-07-20T13:49:34;2.17;;;1.00;;
60233;SDS011;49514;43.538;-5.708;2023-07-20T13:52:01;2.08;;;1.00;;
60233;SDS011;49514;43.538;-5.708;2023-07-20T13:54:28;2.38;;;1.00;;
60233;SDS011;49514;43.538;-5.708;2023-07-20T13:56:55;3.17;;;1.00;;
60233;SDS011;49514;43.538;-5.708;2023-07-20T13:59:22;3.22;;;1.00;;
60233;SDS011;49514;43.538;-5.708;2023-07-20T14:01:49;2.03;;;0.90;;
60233;SDS011;49514;43.538;-5.708;2023-07-20T14:04:16;1.90;;;0.98;;
60233;SDS011;49514;43.538;-5.708;2023-07-20T14:06:43;2.10;;;0.90;;
60233;SDS011;49514;43.538;-5.708;2023-07-20T14:09:10;3.30;;;0.93;;
60233;SDS011;49514;43.538;-5.708;2023-07-20T14:11:38;1.80;;;1.00;;
60233;SDS011;49514;43.538;-5.708;2023-07-20T14:14:04;3.70;;;1.15;;
60233;SDS011;49514;43.538;-5.708;2023-07-20T14:16:31;3.63;;;1.20;;
60233;SDS011;49514;43.538;-5.708;2023-07-20T14:18:58;2.03;;;1.00;;
60233;SDS011;49514;43.538;-5.708;2023-07-20T14:21:25;1.63;;;0.90;;
60233;SDS011;49514;43.538;-5.708;2023-07-20T14:23:52;3.13;;;1.08;;
60233;SDS011;49514;43.538;-5.708;2023-07-20T14:26:21;4.30;;;1.10;;
60233;SDS011;49514;43.538;-5.708;2023-07-20T14:28:48;3.22;;;1.23;;
60233;SDS011;49514;43.538;-5.708;2023-07-20T14:31:15;2.70;;;0.90;;
60233;SDS011;49514;43.538;-5.708;2023-07-20T14:33:41;1.40;;;0.80;;
60233;SDS011;49514;43.538;-5.708;2023-07-20T14:36:08;3.10;;;1.00;;
60233;SDS011;49514;43.538;-5.708;2023-07-20T14:38:36;3.70;;;0.88;;
60233;SDS011;49514;43.538;-5.708;2023-07-20T14:41:03;1.60;;;0.93;;
60233;SDS011;49514;43.538;-5.708;2023-07-20T14:43:32;4.50;;;0.83;;
60233;SDS011;49514;43.538;-5.708;2023-07-20T14:45:59;3.28;;;1.08;;
60233;SDS011;49514;43.538;-5.708;2023-07-20T14:48:26;3.05;;;1.30;;
60233;SDS011;49514;43.538;-5.708;2023-07-20T14:50:53;2.35;;;0.98;;
60233;SDS011;49514;43.538;-5.708;2023-07-20T14:53:19;2.25;;;0.82;;
60233;SDS011;49514;43.538;-5.708;2023-07-20T14:55:46;2.45;;;0.93;;
60233;SDS011;49514;43.538;-5.708;2023-07-20T14:58:15;2.58;;;0.90;;
60233;SDS011;49514;43.538;-5.708;2023-07-20T15:00:42;2.30;;;0.90;;
60233;SDS011;49514;43.538;-5.708;2023-07-20T15:03:08;3.13;;;1.10;;
60233;SDS011;49514;43.538;-5.708;2023-07-20T15:05:35;1.90;;;0.90;;
60233;SDS011;49514;43.538;-5.708;2023-07-20T15:08:04;1.45;;;0.90;;
60233;SDS011;49514;43.538;-5.708;2023-07-20T15:10:31;2.27;;;0.90;;
60233;SDS011;49514;43.538;-5.708;2023-07-20T15:12:58;3.65;;;1.15;;
60233;SDS011;49514;43.538;-5.708;2023-07-20T15:15:25;3.88;;;1.27;;
60233;SDS011;49514;43.538;-5.708;2023-07-20T15:17:52;2.30;;;1.15;;